Aviation Digital Data Service (ADDS)

Output produced by METARs form (1053 UTC 17 June 2019)
found at http://www.aviationweather.gov/metar/data/
 
METAR text: VOTV 171030Z 32013KT 6000 FEW010 SCT015 32/26 Q1007 NOSIG
Conditions at: VOTV (THIRUVANANTHAPUR, IN) observed 1030 UTC 17 June 2019
Temperature: 32.0°C (90°F)
Dewpoint: 26.0°C (79°F) [RH = 71%]
Pressure (altimeter): 29.73 inches Hg (1007.0 mb)
Winds: from the NW (320 degrees) at 15 MPH (13 knots; 6.7 m/s)
Visibility: 4 miles ( 6 km)
Ceiling: at least 12,000 feet AGL
Clouds: few clouds at 1000 feet AGL
scattered clouds at 1500 feet AGL
Weather: no significant weather observed at this time

METAR text: VOTV 171000Z 32014KT 6000 FEW010 SCT015 31/26 Q1007 NOSIG
Conditions at: VOTV (THIRUVANANTHAPUR, IN) observed 1000 UTC 17 June 2019
Temperature: 31.0°C (88°F)
Dewpoint: 26.0°C (79°F) [RH = 75%]
Pressure (altimeter): 29.73 inches Hg (1007.0 mb)
Winds: from the NW (320 degrees) at 16 MPH (14 knots; 7.2 m/s)
Visibility: 4 miles ( 6 km)
Ceiling: at least 12,000 feet AGL
Clouds: few clouds at 1000 feet AGL
scattered clouds at 1500 feet AGL
Weather: no significant weather observed at this time

METAR text: VOTV 170930Z 32011KT 6000 FEW010 SCT015 FEW025CB 32/26 Q1008 TEMPO 4000 -RA
Conditions at: VOTV (THIRUVANANTHAPUR, IN) observed 0930 UTC 17 June 2019
Temperature: 32.0°C (90°F)
Dewpoint: 26.0°C (79°F) [RH = 71%]
Pressure (altimeter): 29.76 inches Hg (1008.0 mb)
Winds: from the NW (320 degrees) at 13 MPH (11 knots; 5.7 m/s)
Visibility: 4 miles ( 6 km)
Ceiling: at least 12,000 feet AGL
Clouds: few clouds at 1000 feet AGL
scattered clouds at 1500 feet AGL
few clouds at 2500 feet AGL
Weather: no significant weather observed at this time

METAR text: VOTV 170900Z 32012KT 6000 FEW010 SCT012 BKN080 31/26 Q1008 TEMPO 4000 -RA
Conditions at: VOTV (THIRUVANANTHAPUR, IN) observed 0900 UTC 17 June 2019
Temperature: 31.0°C (88°F)
Dewpoint: 26.0°C (79°F) [RH = 75%]
Pressure (altimeter): 29.76 inches Hg (1008.0 mb)
Winds: from the NW (320 degrees) at 14 MPH (12 knots; 6.2 m/s)
Visibility: 4 miles ( 6 km)
Ceiling: 8000 feet AGL
Clouds: few clouds at 1000 feet AGL
scattered clouds at 1200 feet AGL
broken clouds at 8000 feet AGL
Weather: no significant weather observed at this time

METAR text: VOTV 170830Z 31012KT 6000 SCT015 FEW025CB 31/26 Q1008 NOSIG
Conditions at: VOTV (THIRUVANANTHAPUR, IN) observed 0830 UTC 17 June 2019
Temperature: 31.0°C (88°F)
Dewpoint: 26.0°C (79°F) [RH = 75%]
Pressure (altimeter): 29.76 inches Hg (1008.0 mb)
Winds: from the NW (310 degrees) at 14 MPH (12 knots; 6.2 m/s)
Visibility: 4 miles ( 6 km)
Ceiling: at least 12,000 feet AGL
Clouds: scattered clouds at 1500 feet AGL
few clouds at 2500 feet AGL
Weather: no significant weather observed at this time

METAR text: VOTV 170800Z 32011KT 6000 SCT015 FEW025CB BKN080 32/26 Q1009 NOSIG
Conditions at: VOTV (THIRUVANANTHAPUR, IN) observed 0800 UTC 17 June 2019
Temperature: 32.0°C (90°F)
Dewpoint: 26.0°C (79°F) [RH = 71%]
Pressure (altimeter): 29.79 inches Hg (1009.0 mb)
Winds: from the NW (320 degrees) at 13 MPH (11 knots; 5.7 m/s)
Visibility: 4 miles ( 6 km)
Ceiling: 8000 feet AGL
Clouds: scattered clouds at 1500 feet AGL
few clouds at 2500 feet AGL
broken clouds at 8000 feet AGL
Weather: no significant weather observed at this time

METAR text: VOTV 170730Z 32012KT 5000 HZ SCT015 FEW025CB 32/26 Q1009 NOSIG
Conditions at: VOTV (THIRUVANANTHAPUR, IN) observed 0730 UTC 17 June 2019
Temperature: 32.0°C (90°F)
Dewpoint: 26.0°C (79°F) [RH = 71%]
Pressure (altimeter): 29.79 inches Hg (1009.0 mb)
Winds: from the NW (320 degrees) at 14 MPH (12 knots; 6.2 m/s)
Visibility: 3 miles ( 5 km)
Ceiling: at least 12,000 feet AGL
Clouds: scattered clouds at 1500 feet AGL
few clouds at 2500 feet AGL
Weather: HZ  (haze)

METAR text: VOTV 170700Z 32010KT 5000 HZ SCT015 FEW025CB 31/26 Q1009 NOSIG
Conditions at: VOTV (THIRUVANANTHAPUR, IN) observed 0700 UTC 17 June 2019
Temperature: 31.0°C (88°F)
Dewpoint: 26.0°C (79°F) [RH = 75%]
Pressure (altimeter): 29.79 inches Hg (1009.0 mb)
Winds: from the NW (320 degrees) at 12 MPH (10 knots; 5.1 m/s)
Visibility: 3 miles ( 5 km)
Ceiling: at least 12,000 feet AGL
Clouds: scattered clouds at 1500 feet AGL
few clouds at 2500 feet AGL
Weather: HZ  (haze)

METAR text: VOTV 170630Z 32010KT 5000 HZ SCT015 FEW025CB 31/26 Q1010 NOSIG
Conditions at: VOTV (THIRUVANANTHAPUR, IN) observed 0630 UTC 17 June 2019
Temperature: 31.0°C (88°F)
Dewpoint: 26.0°C (79°F) [RH = 75%]
Pressure (altimeter): 29.82 inches Hg (1010.0 mb)
Winds: from the NW (320 degrees) at 12 MPH (10 knots; 5.1 m/s)
Visibility: 3 miles ( 5 km)
Ceiling: at least 12,000 feet AGL
Clouds: scattered clouds at 1500 feet AGL
few clouds at 2500 feet AGL
Weather: HZ  (haze)

METAR text: VOTV 170600Z 31010KT 5000 HZ SCT015 FEW025CB 31/26 Q1010 NOSIG
Conditions at: VOTV (THIRUVANANTHAPUR, IN) observed 0600 UTC 17 June 2019
Temperature: 31.0°C (88°F)
Dewpoint: 26.0°C (79°F) [RH = 75%]
Pressure (altimeter): 29.82 inches Hg (1010.0 mb)
Winds: from the NW (310 degrees) at 12 MPH (10 knots; 5.1 m/s)
Visibility: 3 miles ( 5 km)
Ceiling: at least 12,000 feet AGL
Clouds: scattered clouds at 1500 feet AGL
few clouds at 2500 feet AGL
Weather: HZ  (haze)

METAR text: VOTV 170530Z 33011KT 5000 HZ SCT015 FEW025CB 31/26 Q1010 NOSIG
Conditions at: VOTV (THIRUVANANTHAPUR, IN) observed 0530 UTC 17 June 2019
Temperature: 31.0°C (88°F)
Dewpoint: 26.0°C (79°F) [RH = 75%]
Pressure (altimeter): 29.82 inches Hg (1010.0 mb)
Winds: from the NNW (330 degrees) at 13 MPH (11 knots; 5.7 m/s)
Visibility: 3 miles ( 5 km)
Ceiling: at least 12,000 feet AGL
Clouds: scattered clouds at 1500 feet AGL
few clouds at 2500 feet AGL
Weather: HZ  (haze)

METAR text: VOTV 170500Z 31010KT 5000 HZ SCT015 FEW025CB 31/26 Q1010 NOSIG
Conditions at: VOTV (THIRUVANANTHAPUR, IN) observed 0500 UTC 17 June 2019
Temperature: 31.0°C (88°F)
Dewpoint: 26.0°C (79°F) [RH = 75%]
Pressure (altimeter): 29.82 inches Hg (1010.0 mb)
Winds: from the NW (310 degrees) at 12 MPH (10 knots; 5.1 m/s)
Visibility: 3 miles ( 5 km)
Ceiling: at least 12,000 feet AGL
Clouds: scattered clouds at 1500 feet AGL
few clouds at 2500 feet AGL
Weather: HZ  (haze)

METAR text: VOTV 170430Z 32009KT 6000 SCT015 FEW025CB 31/26 Q1010 TEMPO 5000 HZ
Conditions at: VOTV (THIRUVANANTHAPUR, IN) observed 0430 UTC 17 June 2019
Temperature: 31.0°C (88°F)
Dewpoint: 26.0°C (79°F) [RH = 75%]
Pressure (altimeter): 29.82 inches Hg (1010.0 mb)
Winds: from the NW (320 degrees) at 10 MPH (9 knots; 4.6 m/s)
Visibility: 4 miles ( 6 km)
Ceiling: at least 12,000 feet AGL
Clouds: scattered clouds at 1500 feet AGL
few clouds at 2500 feet AGL
Weather: no significant weather observed at this time

METAR text: VOTV 170400Z 32009KT 6000 SCT015 31/26 Q1010 NOSIG
Conditions at: VOTV (THIRUVANANTHAPUR, IN) observed 0400 UTC 17 June 2019
Temperature: 31.0°C (88°F)
Dewpoint: 26.0°C (79°F) [RH = 75%]
Pressure (altimeter): 29.82 inches Hg (1010.0 mb)
Winds: from the NW (320 degrees) at 10 MPH (9 knots; 4.6 m/s)
Visibility: 4 miles ( 6 km)
Ceiling: at least 12,000 feet AGL
Clouds: scattered clouds at 1500 feet AGL
Weather: no significant weather observed at this time

METAR text: VOTV 170330Z 32008KT 6000 SCT015 30/26 Q1010 NOSIG
Conditions at: VOTV (THIRUVANANTHAPUR, IN) observed 0330 UTC 17 June 2019
Temperature: 30.0°C (86°F)
Dewpoint: 26.0°C (79°F) [RH = 79%]
Pressure (altimeter): 29.82 inches Hg (1010.0 mb)
Winds: from the NW (320 degrees) at 9 MPH (8 knots; 4.1 m/s)
Visibility: 4 miles ( 6 km)
Ceiling: at least 12,000 feet AGL
Clouds: scattered clouds at 1500 feet AGL
Weather: no significant weather observed at this time

METAR text: VOTV 170300Z 36006KT 5000 HZ SCT015 30/26 Q1010 BECMG 6000
Conditions at: VOTV (THIRUVANANTHAPUR, IN) observed 0300 UTC 17 June 2019
Temperature: 30.0°C (86°F)
Dewpoint: 26.0°C (79°F) [RH = 79%]
Pressure (altimeter): 29.82 inches Hg (1010.0 mb)
Winds: from the N (360 degrees) at 7 MPH (6 knots; 3.1 m/s)
Visibility: 3 miles ( 5 km)
Ceiling: at least 12,000 feet AGL
Clouds: scattered clouds at 1500 feet AGL
Weather: HZ  (haze)

METAR text: VOTV 170230Z 36006KT 5000 HZ FEW015 29/25 Q1009 NOSIG
Conditions at: VOTV (THIRUVANANTHAPUR, IN) observed 0230 UTC 17 June 2019
Temperature: 29.0°C (84°F)
Dewpoint: 25.0°C (77°F) [RH = 79%]
Pressure (altimeter): 29.79 inches Hg (1009.0 mb)
Winds: from the N (360 degrees) at 7 MPH (6 knots; 3.1 m/s)
Visibility: 3 miles ( 5 km)
Ceiling: at least 12,000 feet AGL
Clouds: few clouds at 1500 feet AGL
Weather: HZ  (haze)

METAR text: VOTV 170200Z 01006KT 5000 HZ FEW015 29/26 Q1009 NOSIG
Conditions at: VOTV (THIRUVANANTHAPUR, IN) observed 0200 UTC 17 June 2019
Temperature: 29.0°C (84°F)
Dewpoint: 26.0°C (79°F) [RH = 84%]
Pressure (altimeter): 29.79 inches Hg (1009.0 mb)
Winds: from the N (10 degrees) at 7 MPH (6 knots; 3.1 m/s)
Visibility: 3 miles ( 5 km)
Ceiling: at least 12,000 feet AGL
Clouds: few clouds at 1500 feet AGL
Weather: HZ  (haze)

METAR text: VOTV 170130Z 35006KT 4000 HZ SCT015 28/26 Q1009 BECMG 5000 HZ
Conditions at: VOTV (THIRUVANANTHAPUR, IN) observed 0130 UTC 17 June 2019
Temperature: 28.0°C (82°F)
Dewpoint: 26.0°C (79°F) [RH = 89%]
Pressure (altimeter): 29.79 inches Hg (1009.0 mb)
Winds: from the N (350 degrees) at 7 MPH (6 knots; 3.1 m/s)
Visibility: 2.49 miles (4.01 km)
Ceiling: at least 12,000 feet AGL
Clouds: scattered clouds at 1500 feet AGL
Weather: HZ  (haze)

METAR text: VOTV 170100Z 35004KT 3000 HZ SCT012 27/25 Q1009 BECMG 4000 HZ
Conditions at: VOTV (THIRUVANANTHAPUR, IN) observed 0100 UTC 17 June 2019
Temperature: 27.0°C (81°F)
Dewpoint: 25.0°C (77°F) [RH = 89%]
Pressure (altimeter): 29.79 inches Hg (1009.0 mb)
Winds: from the N (350 degrees) at 5 MPH (4 knots; 2.1 m/s)
Visibility: 1.86 miles (2.99 km)
Ceiling: at least 12,000 feet AGL
Clouds: scattered clouds at 1200 feet AGL
Weather: HZ  (haze)

METAR text: VOTV 170030Z 36006KT 3000 HZ FEW015 SCT080 27/25 Q1009 NOSIG
Conditions at: VOTV (THIRUVANANTHAPUR, IN) observed 0030 UTC 17 June 2019
Temperature: 27.0°C (81°F)
Dewpoint: 25.0°C (77°F) [RH = 89%]
Pressure (altimeter): 29.79 inches Hg (1009.0 mb)
Winds: from the N (360 degrees) at 7 MPH (6 knots; 3.1 m/s)
Visibility: 1.86 miles (2.99 km)
Ceiling: at least 12,000 feet AGL
Clouds: few clouds at 1500 feet AGL
scattered clouds at 8000 feet AGL
Weather: HZ  (haze)

METAR text: VOTV 170000Z 35005KT 3000 HZ FEW015 SCT080 27/25 Q1009 NOSIG
Conditions at: VOTV (THIRUVANANTHAPUR, IN) observed 0000 UTC 17 June 2019
Temperature: 27.0°C (81°F)
Dewpoint: 25.0°C (77°F) [RH = 89%]
Pressure (altimeter): 29.79 inches Hg (1009.0 mb)
Winds: from the N (350 degrees) at 6 MPH (5 knots; 2.6 m/s)
Visibility: 1.86 miles (2.99 km)
Ceiling: at least 12,000 feet AGL
Clouds: few clouds at 1500 feet AGL
scattered clouds at 8000 feet AGL
Weather: HZ  (haze)

METAR text: VOTV 162330Z 35005KT 3000 HZ FEW012 SCT080 FEW025CB 27/25 Q1009 NOSIG
Conditions at: VOTV (THIRUVANANTHAPUR, IN) observed 2330 UTC 16 June 2019
Temperature: 27.0°C (81°F)
Dewpoint: 25.0°C (77°F) [RH = 89%]
Pressure (altimeter): 29.79 inches Hg (1009.0 mb)
Winds: from the N (350 degrees) at 6 MPH (5 knots; 2.6 m/s)
Visibility: 1.86 miles (2.99 km)
Ceiling: at least 12,000 feet AGL
Clouds: few clouds at 1200 feet AGL
scattered clouds at 8000 feet AGL
few clouds at 2500 feet AGL
Weather: HZ  (haze)

METAR text: VOTV 162300Z 36005KT 3000 HZ FEW012 SCT080 FEW025CB 27/25 Q1008 NOSIG
Conditions at: VOTV (THIRUVANANTHAPUR, IN) observed 2300 UTC 16 June 2019
Temperature: 27.0°C (81°F)
Dewpoint: 25.0°C (77°F) [RH = 89%]
Pressure (altimeter): 29.76 inches Hg (1008.0 mb)
Winds: from the N (360 degrees) at 6 MPH (5 knots; 2.6 m/s)
Visibility: 1.86 miles (2.99 km)
Ceiling: at least 12,000 feet AGL
Clouds: few clouds at 1200 feet AGL
scattered clouds at 8000 feet AGL
few clouds at 2500 feet AGL
Weather: HZ  (haze)

METAR text: VOTV 162230Z 36005KT 3000 HZ FEW012 SCT080 FEW025CB 27/25 Q1008 NOSIG
Conditions at: VOTV (THIRUVANANTHAPUR, IN) observed 2230 UTC 16 June 2019
Temperature: 27.0°C (81°F)
Dewpoint: 25.0°C (77°F) [RH = 89%]
Pressure (altimeter): 29.76 inches Hg (1008.0 mb)
Winds: from the N (360 degrees) at 6 MPH (5 knots; 2.6 m/s)
Visibility: 1.86 miles (2.99 km)
Ceiling: at least 12,000 feet AGL
Clouds: few clouds at 1200 feet AGL
scattered clouds at 8000 feet AGL
few clouds at 2500 feet AGL
Weather: HZ  (haze)

METAR text: VOTV 162200Z 36005KT 3000 HZ FEW012 SCT080 FEW025CB 27/25 Q1008 NOSIG
Conditions at: VOTV (THIRUVANANTHAPUR, IN) observed 2200 UTC 16 June 2019
Temperature: 27.0°C (81°F)
Dewpoint: 25.0°C (77°F) [RH = 89%]
Pressure (altimeter): 29.76 inches Hg (1008.0 mb)
Winds: from the N (360 degrees) at 6 MPH (5 knots; 2.6 m/s)
Visibility: 1.86 miles (2.99 km)
Ceiling: at least 12,000 feet AGL
Clouds: few clouds at 1200 feet AGL
scattered clouds at 8000 feet AGL
few clouds at 2500 feet AGL
Weather: HZ  (haze)

METAR text: VOTV 162130Z 34005KT 3000 HZ FEW012 SCT080 FEW025CB 28/25 Q1008 NOSIG
Conditions at: VOTV (THIRUVANANTHAPUR, IN) observed 2130 UTC 16 June 2019
Temperature: 28.0°C (82°F)
Dewpoint: 25.0°C (77°F) [RH = 84%]
Pressure (altimeter): 29.76 inches Hg (1008.0 mb)
Winds: from the NNW (340 degrees) at 6 MPH (5 knots; 2.6 m/s)
Visibility: 1.86 miles (2.99 km)
Ceiling: at least 12,000 feet AGL
Clouds: few clouds at 1200 feet AGL
scattered clouds at 8000 feet AGL
few clouds at 2500 feet AGL
Weather: HZ  (haze)

METAR text: VOTV 162100Z 36005KT 4000 -DZ SCT012 SCT080 FEW025CB 28/25 Q1009 TEMPO 3000 -RA HZ
Conditions at: VOTV (THIRUVANANTHAPUR, IN) observed 2100 UTC 16 June 2019
Temperature: 28.0°C (82°F)
Dewpoint: 25.0°C (77°F) [RH = 84%]
Pressure (altimeter): 29.79 inches Hg (1009.0 mb)
Winds: from the N (360 degrees) at 6 MPH (5 knots; 2.6 m/s)
Visibility: 2.49 miles (4.01 km)
Ceiling: at least 12,000 feet AGL
Clouds: scattered clouds at 1200 feet AGL
scattered clouds at 8000 feet AGL
few clouds at 2500 feet AGL
Weather: -DZ  (light drizzle)

METAR text: VOTV 162030Z 36004KT 4000 HZ FEW012 SCT080 FEW025CB 28/25 Q1008 NOSIG
Conditions at: VOTV (THIRUVANANTHAPUR, IN) observed 2030 UTC 16 June 2019
Temperature: 28.0°C (82°F)
Dewpoint: 25.0°C (77°F) [RH = 84%]
Pressure (altimeter): 29.76 inches Hg (1008.0 mb)
Winds: from the N (360 degrees) at 5 MPH (4 knots; 2.1 m/s)
Visibility: 2.49 miles (4.01 km)
Ceiling: at least 12,000 feet AGL
Clouds: few clouds at 1200 feet AGL
scattered clouds at 8000 feet AGL
few clouds at 2500 feet AGL
Weather: HZ  (haze)

METAR text: VOTV 162000Z 36004KT 4000 -DZ SCT012 FEW025CB BKN080 28/25 Q1009 TEMPO 3000 -DZ
Conditions at: VOTV (THIRUVANANTHAPUR, IN) observed 2000 UTC 16 June 2019
Temperature: 28.0°C (82°F)
Dewpoint: 25.0°C (77°F) [RH = 84%]
Pressure (altimeter): 29.79 inches Hg (1009.0 mb)
Winds: from the N (360 degrees) at 5 MPH (4 knots; 2.1 m/s)
Visibility: 2.49 miles (4.01 km)
Ceiling: 8000 feet AGL
Clouds: scattered clouds at 1200 feet AGL
few clouds at 2500 feet AGL
broken clouds at 8000 feet AGL
Weather: -DZ  (light drizzle)

METAR text: VOTV 161930Z 35004KT 4000 HZ SCT015 SCT080 28/25 Q1009 NOSIG
Conditions at: VOTV (THIRUVANANTHAPUR, IN) observed 1930 UTC 16 June 2019
Temperature: 28.0°C (82°F)
Dewpoint: 25.0°C (77°F) [RH = 84%]
Pressure (altimeter): 29.79 inches Hg (1009.0 mb)
Winds: from the N (350 degrees) at 5 MPH (4 knots; 2.1 m/s)
Visibility: 2.49 miles (4.01 km)
Ceiling: at least 12,000 feet AGL
Clouds: scattered clouds at 1500 feet AGL
scattered clouds at 8000 feet AGL
Weather: HZ  (haze)

METAR text: VOTV 161900Z 35004KT 4000 HZ SCT015 SCT080 28/26 Q1009 NOSIG
Conditions at: VOTV (THIRUVANANTHAPUR, IN) observed 1900 UTC 16 June 2019
Temperature: 28.0°C (82°F)
Dewpoint: 26.0°C (79°F) [RH = 89%]
Pressure (altimeter): 29.79 inches Hg (1009.0 mb)
Winds: from the N (350 degrees) at 5 MPH (4 knots; 2.1 m/s)
Visibility: 2.49 miles (4.01 km)
Ceiling: at least 12,000 feet AGL
Clouds: scattered clouds at 1500 feet AGL
scattered clouds at 8000 feet AGL
Weather: HZ  (haze)

METAR text: VOTV 161830Z 36004KT 4000 HZ FEW015 SCT080 28/26 Q1009 NOSIG
Conditions at: VOTV (THIRUVANANTHAPUR, IN) observed 1830 UTC 16 June 2019
Temperature: 28.0°C (82°F)
Dewpoint: 26.0°C (79°F) [RH = 89%]
Pressure (altimeter): 29.79 inches Hg (1009.0 mb)
Winds: from the N (360 degrees) at 5 MPH (4 knots; 2.1 m/s)
Visibility: 2.49 miles (4.01 km)
Ceiling: at least 12,000 feet AGL
Clouds: few clouds at 1500 feet AGL
scattered clouds at 8000 feet AGL
Weather: HZ  (haze)

METAR text: VOTV 161800Z 36004KT 4000 HZ FEW015 SCT080 28/26 Q1010 NOSIG
Conditions at: VOTV (THIRUVANANTHAPUR, IN) observed 1800 UTC 16 June 2019
Temperature: 28.0°C (82°F)
Dewpoint: 26.0°C (79°F) [RH = 89%]
Pressure (altimeter): 29.82 inches Hg (1010.0 mb)
Winds: from the N (360 degrees) at 5 MPH (4 knots; 2.1 m/s)
Visibility: 2.49 miles (4.01 km)
Ceiling: at least 12,000 feet AGL
Clouds: few clouds at 1500 feet AGL
scattered clouds at 8000 feet AGL
Weather: HZ  (haze)

METAR text: VOTV 161730Z 35004KT 4000 HZ FEW015 SCT080 28/26 Q1010 NOSIG
Conditions at: VOTV (THIRUVANANTHAPUR, IN) observed 1730 UTC 16 June 2019
Temperature: 28.0°C (82°F)
Dewpoint: 26.0°C (79°F) [RH = 89%]
Pressure (altimeter): 29.82 inches Hg (1010.0 mb)
Winds: from the N (350 degrees) at 5 MPH (4 knots; 2.1 m/s)
Visibility: 2.49 miles (4.01 km)
Ceiling: at least 12,000 feet AGL
Clouds: few clouds at 1500 feet AGL
scattered clouds at 8000 feet AGL
Weather: HZ  (haze)

METAR text: VOTV 161700Z 35005KT 4000 HZ FEW015 SCT080 29/26 Q1010 NOSIG
Conditions at: VOTV (THIRUVANANTHAPUR, IN) observed 1700 UTC 16 June 2019
Temperature: 29.0°C (84°F)
Dewpoint: 26.0°C (79°F) [RH = 84%]
Pressure (altimeter): 29.82 inches Hg (1010.0 mb)
Winds: from the N (350 degrees) at 6 MPH (5 knots; 2.6 m/s)
Visibility: 2.49 miles (4.01 km)
Ceiling: at least 12,000 feet AGL
Clouds: few clouds at 1500 feet AGL
scattered clouds at 8000 feet AGL
Weather: HZ  (haze)

METAR text: VOTV 161630Z 35005KT 4000 HZ FEW015 SCT080 29/26 Q1010 NOSIG
Conditions at: VOTV (THIRUVANANTHAPUR, IN) observed 1630 UTC 16 June 2019
Temperature: 29.0°C (84°F)
Dewpoint: 26.0°C (79°F) [RH = 84%]
Pressure (altimeter): 29.82 inches Hg (1010.0 mb)
Winds: from the N (350 degrees) at 6 MPH (5 knots; 2.6 m/s)
Visibility: 2.49 miles (4.01 km)
Ceiling: at least 12,000 feet AGL
Clouds: few clouds at 1500 feet AGL
scattered clouds at 8000 feet AGL
Weather: HZ  (haze)

METAR text: VOTV 161600Z 34005KT 4000 HZ FEW015 SCT080 29/26 Q1010 NOSIG
Conditions at: VOTV (THIRUVANANTHAPUR, IN) observed 1600 UTC 16 June 2019
Temperature: 29.0°C (84°F)
Dewpoint: 26.0°C (79°F) [RH = 84%]
Pressure (altimeter): 29.82 inches Hg (1010.0 mb)
Winds: from the NNW (340 degrees) at 6 MPH (5 knots; 2.6 m/s)
Visibility: 2.49 miles (4.01 km)
Ceiling: at least 12,000 feet AGL
Clouds: few clouds at 1500 feet AGL
scattered clouds at 8000 feet AGL
Weather: HZ  (haze)

METAR text: VOTV 161530Z 34005KT 4000 HZ FEW015 SCT080 29/26 Q1010 NOSIG
Conditions at: VOTV (THIRUVANANTHAPUR, IN) observed 1530 UTC 16 June 2019
Temperature: 29.0°C (84°F)
Dewpoint: 26.0°C (79°F) [RH = 84%]
Pressure (altimeter): 29.82 inches Hg (1010.0 mb)
Winds: from the NNW (340 degrees) at 6 MPH (5 knots; 2.6 m/s)
Visibility: 2.49 miles (4.01 km)
Ceiling: at least 12,000 feet AGL
Clouds: few clouds at 1500 feet AGL
scattered clouds at 8000 feet AGL
Weather: HZ  (haze)

METAR text: VOTV 161500Z 34007KT 4000 HZ FEW015 SCT080 29/26 Q1010 NOSIG
Conditions at: VOTV (THIRUVANANTHAPUR, IN) observed 1500 UTC 16 June 2019
Temperature: 29.0°C (84°F)
Dewpoint: 26.0°C (79°F) [RH = 84%]
Pressure (altimeter): 29.82 inches Hg (1010.0 mb)
Winds: from the NNW (340 degrees) at 8 MPH (7 knots; 3.6 m/s)
Visibility: 2.49 miles (4.01 km)
Ceiling: at least 12,000 feet AGL
Clouds: few clouds at 1500 feet AGL
scattered clouds at 8000 feet AGL
Weather: HZ  (haze)

METAR text: VOTV 161430Z 32006KT 4000 HZ FEW015 SCT080 29/26 Q1009 NOSIG
Conditions at: VOTV (THIRUVANANTHAPUR, IN) observed 1430 UTC 16 June 2019
Temperature: 29.0°C (84°F)
Dewpoint: 26.0°C (79°F) [RH = 84%]
Pressure (altimeter): 29.79 inches Hg (1009.0 mb)
Winds: from the NW (320 degrees) at 7 MPH (6 knots; 3.1 m/s)
Visibility: 2.49 miles (4.01 km)
Ceiling: at least 12,000 feet AGL
Clouds: few clouds at 1500 feet AGL
scattered clouds at 8000 feet AGL
Weather: HZ  (haze)

METAR text: VOTV 161330Z 33008KT 5000 HZ FEW015 SCT080 29/26 Q1008 TEMPO 4000 HZ
Conditions at: VOTV (THIRUVANANTHAPUR, IN) observed 1330 UTC 16 June 2019
Temperature: 29.0°C (84°F)
Dewpoint: 26.0°C (79°F) [RH = 84%]
Pressure (altimeter): 29.76 inches Hg (1008.0 mb)
Winds: from the NNW (330 degrees) at 9 MPH (8 knots; 4.1 m/s)
Visibility: 3 miles ( 5 km)
Ceiling: at least 12,000 feet AGL
Clouds: few clouds at 1500 feet AGL
scattered clouds at 8000 feet AGL
Weather: HZ  (haze)

METAR text: VOTV 161300Z 32008KT 5000 FEW015 30/25 Q1008 NOSIG
Conditions at: VOTV (THIRUVANANTHAPUR, IN) observed 1300 UTC 16 June 2019
Temperature: 30.0°C (86°F)
Dewpoint: 25.0°C (77°F) [RH = 75%]
Pressure (altimeter): 29.76 inches Hg (1008.0 mb)
Winds: from the NW (320 degrees) at 9 MPH (8 knots; 4.1 m/s)
Visibility: 3 miles ( 5 km)
Ceiling: at least 12,000 feet AGL
Clouds: few clouds at 1500 feet AGL
Weather: no significant weather observed at this time

METAR text: VOTV 161230Z 32009KT 6000 FEW015 30/25 Q1008 TEMPO 5000 HZ
Conditions at: VOTV (THIRUVANANTHAPUR, IN) observed 1230 UTC 16 June 2019
Temperature: 30.0°C (86°F)
Dewpoint: 25.0°C (77°F) [RH = 75%]
Pressure (altimeter): 29.76 inches Hg (1008.0 mb)
Winds: from the NW (320 degrees) at 10 MPH (9 knots; 4.6 m/s)
Visibility: 4 miles ( 6 km)
Ceiling: at least 12,000 feet AGL
Clouds: few clouds at 1500 feet AGL
Weather: no significant weather observed at this time

METAR text: VOTV 161200Z 31008KT 6000 FEW015 30/25 Q1007 NOSIG
Conditions at: VOTV (THIRUVANANTHAPUR, IN) observed 1200 UTC 16 June 2019
Temperature: 30.0°C (86°F)
Dewpoint: 25.0°C (77°F) [RH = 75%]
Pressure (altimeter): 29.73 inches Hg (1007.0 mb)
Winds: from the NW (310 degrees) at 9 MPH (8 knots; 4.1 m/s)
Visibility: 4 miles ( 6 km)
Ceiling: at least 12,000 feet AGL
Clouds: few clouds at 1500 feet AGL
Weather: no significant weather observed at this time

METAR text: VOTV 161130Z 31010KT 6000 FEW015 31/25 Q1007 NOSIG
Conditions at: VOTV (THIRUVANANTHAPUR, IN) observed 1130 UTC 16 June 2019
Temperature: 31.0°C (88°F)
Dewpoint: 25.0°C (77°F) [RH = 71%]
Pressure (altimeter): 29.73 inches Hg (1007.0 mb)
Winds: from the NW (310 degrees) at 12 MPH (10 knots; 5.1 m/s)
Visibility: 4 miles ( 6 km)
Ceiling: at least 12,000 feet AGL
Clouds: few clouds at 1500 feet AGL
Weather: no significant weather observed at this time

METAR text: VOTV 161100Z 32010KT 6000 FEW015 31/25 Q1007 NOSIG
Conditions at: VOTV (THIRUVANANTHAPUR, IN) observed 1100 UTC 16 June 2019
Temperature: 31.0°C (88°F)
Dewpoint: 25.0°C (77°F) [RH = 71%]
Pressure (altimeter): 29.73 inches Hg (1007.0 mb)
Winds: from the NW (320 degrees) at 12 MPH (10 knots; 5.1 m/s)
Visibility: 4 miles ( 6 km)
Ceiling: at least 12,000 feet AGL
Clouds: few clouds at 1500 feet AGL
Weather: no significant weather observed at this time

METAR text: VOTV 161030Z 31013KT 6000 FEW015 31/25 Q1007 NOSIG
Conditions at: VOTV (THIRUVANANTHAPUR, IN) observed 1030 UTC 16 June 2019
Temperature: 31.0°C (88°F)
Dewpoint: 25.0°C (77°F) [RH = 71%]
Pressure (altimeter): 29.73 inches Hg (1007.0 mb)
Winds: from the NW (310 degrees) at 15 MPH (13 knots; 6.7 m/s)
Visibility: 4 miles ( 6 km)
Ceiling: at least 12,000 feet AGL
Clouds: few clouds at 1500 feet AGL
Weather: no significant weather observed at this time

METAR text: VOTV 161000Z 32011KT 6000 FEW015 31/25 Q1007 NOSIG
Conditions at: VOTV (THIRUVANANTHAPUR, IN) observed 1000 UTC 16 June 2019
Temperature: 31.0°C (88°F)
Dewpoint: 25.0°C (77°F) [RH = 71%]
Pressure (altimeter): 29.73 inches Hg (1007.0 mb)
Winds: from the NW (320 degrees) at 13 MPH (11 knots; 5.7 m/s)
Visibility: 4 miles ( 6 km)
Ceiling: at least 12,000 feet AGL
Clouds: few clouds at 1500 feet AGL
Weather: no significant weather observed at this time

METAR text: VOTV 160930Z 31010KT 6000 SCT015 31/25 Q1007 NOSIG
Conditions at: VOTV (THIRUVANANTHAPUR, IN) observed 0930 UTC 16 June 2019
Temperature: 31.0°C (88°F)
Dewpoint: 25.0°C (77°F) [RH = 71%]
Pressure (altimeter): 29.73 inches Hg (1007.0 mb)
Winds: from the NW (310 degrees) at 12 MPH (10 knots; 5.1 m/s)
Visibility: 4 miles ( 6 km)
Ceiling: at least 12,000 feet AGL
Clouds: scattered clouds at 1500 feet AGL
Weather: no significant weather observed at this time

METAR text: VOTV 160900Z 31012KT 6000 FEW015 31/25 Q1007 NOSIG
Conditions at: VOTV (THIRUVANANTHAPUR, IN) observed 0900 UTC 16 June 2019
Temperature: 31.0°C (88°F)
Dewpoint: 25.0°C (77°F) [RH = 71%]
Pressure (altimeter): 29.73 inches Hg (1007.0 mb)
Winds: from the NW (310 degrees) at 14 MPH (12 knots; 6.2 m/s)
Visibility: 4 miles ( 6 km)
Ceiling: at least 12,000 feet AGL
Clouds: few clouds at 1500 feet AGL
Weather: no significant weather observed at this time

METAR text: VOTV 160830Z 32011KT 6000 SCT015 32/26 Q1007 NOSIG
Conditions at: VOTV (THIRUVANANTHAPUR, IN) observed 0830 UTC 16 June 2019
Temperature: 32.0°C (90°F)
Dewpoint: 26.0°C (79°F) [RH = 71%]
Pressure (altimeter): 29.73 inches Hg (1007.0 mb)
Winds: from the NW (320 degrees) at 13 MPH (11 knots; 5.7 m/s)
Visibility: 4 miles ( 6 km)
Ceiling: at least 12,000 feet AGL
Clouds: scattered clouds at 1500 feet AGL
Weather: no significant weather observed at this time

METAR text: VOTV 160800Z 32010KT 6000 SCT015 32/26 Q1008 NOSIG
Conditions at: VOTV (THIRUVANANTHAPUR, IN) observed 0800 UTC 16 June 2019
Temperature: 32.0°C (90°F)
Dewpoint: 26.0°C (79°F) [RH = 71%]
Pressure (altimeter): 29.76 inches Hg (1008.0 mb)
Winds: from the NW (320 degrees) at 12 MPH (10 knots; 5.1 m/s)
Visibility: 4 miles ( 6 km)
Ceiling: at least 12,000 feet AGL
Clouds: scattered clouds at 1500 feet AGL
Weather: no significant weather observed at this time

METAR text: VOTV 160730Z 30010KT 6000 SCT015 FEW025CB 31/26 Q1008 NOSIG
Conditions at: VOTV (THIRUVANANTHAPUR, IN) observed 0730 UTC 16 June 2019
Temperature: 31.0°C (88°F)
Dewpoint: 26.0°C (79°F) [RH = 75%]
Pressure (altimeter): 29.76 inches Hg (1008.0 mb)
Winds: from the WNW (300 degrees) at 12 MPH (10 knots; 5.1 m/s)
Visibility: 4 miles ( 6 km)
Ceiling: at least 12,000 feet AGL
Clouds: scattered clouds at 1500 feet AGL
few clouds at 2500 feet AGL
Weather: no significant weather observed at this time

METAR text: VOTV 160700Z 31007KT 6000 SCT015 FEW025CB 31/26 Q1008 NOSIG
Conditions at: VOTV (THIRUVANANTHAPUR, IN) observed 0700 UTC 16 June 2019
Temperature: 31.0°C (88°F)
Dewpoint: 26.0°C (79°F) [RH = 75%]
Pressure (altimeter): 29.76 inches Hg (1008.0 mb)
Winds: from the NW (310 degrees) at 8 MPH (7 knots; 3.6 m/s)
Visibility: 4 miles ( 6 km)
Ceiling: at least 12,000 feet AGL
Clouds: scattered clouds at 1500 feet AGL
few clouds at 2500 feet AGL
Weather: no significant weather observed at this time

METAR text: VOTV 160630Z 31008KT 6000 SCT015 FEW025CB 31/26 Q1009 NOSIG
Conditions at: VOTV (THIRUVANANTHAPUR, IN) observed 0630 UTC 16 June 2019
Temperature: 31.0°C (88°F)
Dewpoint: 26.0°C (79°F) [RH = 75%]
Pressure (altimeter): 29.79 inches Hg (1009.0 mb)
Winds: from the NW (310 degrees) at 9 MPH (8 knots; 4.1 m/s)
Visibility: 4 miles ( 6 km)
Ceiling: at least 12,000 feet AGL
Clouds: scattered clouds at 1500 feet AGL
few clouds at 2500 feet AGL
Weather: no significant weather observed at this time

METAR text: VOTV 160600Z 32010KT 6000 SCT015 FEW025CB 31/26 Q1009 NOSIG
Conditions at: VOTV (THIRUVANANTHAPUR, IN) observed 0600 UTC 16 June 2019
Temperature: 31.0°C (88°F)
Dewpoint: 26.0°C (79°F) [RH = 75%]
Pressure (altimeter): 29.79 inches Hg (1009.0 mb)
Winds: from the NW (320 degrees) at 12 MPH (10 knots; 5.1 m/s)
Visibility: 4 miles ( 6 km)
Ceiling: at least 12,000 feet AGL
Clouds: scattered clouds at 1500 feet AGL
few clouds at 2500 feet AGL
Weather: no significant weather observed at this time

METAR text: VOTV 160530Z 32008KT 6000 SCT015 FEW025CB 31/26 Q1009 NOSIG
Conditions at: VOTV (THIRUVANANTHAPUR, IN) observed 0530 UTC 16 June 2019
Temperature: 31.0°C (88°F)
Dewpoint: 26.0°C (79°F) [RH = 75%]
Pressure (altimeter): 29.79 inches Hg (1009.0 mb)
Winds: from the NW (320 degrees) at 9 MPH (8 knots; 4.1 m/s)
Visibility: 4 miles ( 6 km)
Ceiling: at least 12,000 feet AGL
Clouds: scattered clouds at 1500 feet AGL
few clouds at 2500 feet AGL
Weather: no significant weather observed at this time

METAR text: VOTV 160500Z 31010KT 6000 SCT015 FEW025CB 31/26 Q1010 NOSIG
Conditions at: VOTV (THIRUVANANTHAPUR, IN) observed 0500 UTC 16 June 2019
Temperature: 31.0°C (88°F)
Dewpoint: 26.0°C (79°F) [RH = 75%]
Pressure (altimeter): 29.82 inches Hg (1010.0 mb)
Winds: from the NW (310 degrees) at 12 MPH (10 knots; 5.1 m/s)
Visibility: 4 miles ( 6 km)
Ceiling: at least 12,000 feet AGL
Clouds: scattered clouds at 1500 feet AGL
few clouds at 2500 feet AGL
Weather: no significant weather observed at this time

METAR text: VOTV 160430Z 34008KT 5000 HZ FEW015 FEW025CB 32/26 Q1010 BECMG 6000
Conditions at: VOTV (THIRUVANANTHAPUR, IN) observed 0430 UTC 16 June 2019
Temperature: 32.0°C (90°F)
Dewpoint: 26.0°C (79°F) [RH = 71%]
Pressure (altimeter): 29.82 inches Hg (1010.0 mb)
Winds: from the NNW (340 degrees) at 9 MPH (8 knots; 4.1 m/s)
Visibility: 3 miles ( 5 km)
Ceiling: at least 12,000 feet AGL
Clouds: few clouds at 1500 feet AGL
few clouds at 2500 feet AGL
Weather: HZ  (haze)

METAR text: VOTV 160400Z 35007KT 5000 HZ FEW015 SCT090 FEW025CB 31/26 Q1010 NOSIG
Conditions at: VOTV (THIRUVANANTHAPUR, IN) observed 0400 UTC 16 June 2019
Temperature: 31.0°C (88°F)
Dewpoint: 26.0°C (79°F) [RH = 75%]
Pressure (altimeter): 29.82 inches Hg (1010.0 mb)
Winds: from the N (350 degrees) at 8 MPH (7 knots; 3.6 m/s)
Visibility: 3 miles ( 5 km)
Ceiling: at least 12,000 feet AGL
Clouds: few clouds at 1500 feet AGL
scattered clouds at 9000 feet AGL
few clouds at 2500 feet AGL
Weather: HZ  (haze)

METAR text: VOTV 160330Z 35006KT 4000 HZ FEW015 SCT080 FEW025CB 30/26 Q1010 BECMG 5000 HZ
Conditions at: VOTV (THIRUVANANTHAPUR, IN) observed 0330 UTC 16 June 2019
Temperature: 30.0°C (86°F)
Dewpoint: 26.0°C (79°F) [RH = 79%]
Pressure (altimeter): 29.82 inches Hg (1010.0 mb)
Winds: from the N (350 degrees) at 7 MPH (6 knots; 3.1 m/s)
Visibility: 2.49 miles (4.01 km)
Ceiling: at least 12,000 feet AGL
Clouds: few clouds at 1500 feet AGL
scattered clouds at 8000 feet AGL
few clouds at 2500 feet AGL
Weather: HZ  (haze)

METAR text: VOTV 160300Z 01006KT 4000 HZ SCT012 FEW025CB BKN080 29/26 Q1010 NOSIG
Conditions at: VOTV (THIRUVANANTHAPUR, IN) observed 0300 UTC 16 June 2019
Temperature: 29.0°C (84°F)
Dewpoint: 26.0°C (79°F) [RH = 84%]
Pressure (altimeter): 29.82 inches Hg (1010.0 mb)
Winds: from the N (10 degrees) at 7 MPH (6 knots; 3.1 m/s)
Visibility: 2.49 miles (4.01 km)
Ceiling: 8000 feet AGL
Clouds: scattered clouds at 1200 feet AGL
few clouds at 2500 feet AGL
broken clouds at 8000 feet AGL
Weather: HZ  (haze)

METAR text: VOTV 160230Z 01004KT 4000 HZ SCT012 FEW025CB BKN080 28/26 Q1009 NOSIG
Conditions at: VOTV (THIRUVANANTHAPUR, IN) observed 0230 UTC 16 June 2019
Temperature: 28.0°C (82°F)
Dewpoint: 26.0°C (79°F) [RH = 89%]
Pressure (altimeter): 29.79 inches Hg (1009.0 mb)
Winds: from the N (10 degrees) at 5 MPH (4 knots; 2.1 m/s)
Visibility: 2.49 miles (4.01 km)
Ceiling: 8000 feet AGL
Clouds: scattered clouds at 1200 feet AGL
few clouds at 2500 feet AGL
broken clouds at 8000 feet AGL
Weather: HZ  (haze)

METAR text: VOTV 160200Z 01003KT 4000 HZ SCT012 FEW025CB BKN080 27/27 Q1009 TEMPO 3000 RA
Conditions at: VOTV (THIRUVANANTHAPUR, IN) observed 0200 UTC 16 June 2019
Temperature: 27.0°C (81°F)
Dewpoint: 27.0°C (81°F) [RH = 100%]
Pressure (altimeter): 29.79 inches Hg (1009.0 mb)
Winds: from the N (10 degrees) at 3 MPH (3 knots; 1.5 m/s)
Visibility: 2.49 miles (4.01 km)
Ceiling: 8000 feet AGL
Clouds: scattered clouds at 1200 feet AGL
few clouds at 2500 feet AGL
broken clouds at 8000 feet AGL
Weather: HZ  (haze)

METAR text: VOTV 160130Z 01005KT 4000 HZ SCT012 FEW025CB BKN080 27/25 Q1009 TEMPO 3000 RA
Conditions at: VOTV (THIRUVANANTHAPUR, IN) observed 0130 UTC 16 June 2019
Temperature: 27.0°C (81°F)
Dewpoint: 25.0°C (77°F) [RH = 89%]
Pressure (altimeter): 29.79 inches Hg (1009.0 mb)
Winds: from the N (10 degrees) at 6 MPH (5 knots; 2.6 m/s)
Visibility: 2.49 miles (4.01 km)
Ceiling: 8000 feet AGL
Clouds: scattered clouds at 1200 feet AGL
few clouds at 2500 feet AGL
broken clouds at 8000 feet AGL
Weather: HZ  (haze)

METAR text: VOTV 160100Z 35004KT 3000 HZ FEW008 SCT012 FEW025CB BKN080 27/26 Q1009 NOSIG
Conditions at: VOTV (THIRUVANANTHAPUR, IN) observed 0100 UTC 16 June 2019
Temperature: 27.0°C (81°F)
Dewpoint: 26.0°C (79°F) [RH = 94%]
Pressure (altimeter): 29.79 inches Hg (1009.0 mb)
Winds: from the N (350 degrees) at 5 MPH (4 knots; 2.1 m/s)
Visibility: 1.86 miles (2.99 km)
Ceiling: 8000 feet AGL
Clouds: few clouds at 800 feet AGL
scattered clouds at 1200 feet AGL
few clouds at 2500 feet AGL
broken clouds at 8000 feet AGL
Weather: HZ  (haze)

METAR text: VOTV 160030Z 35003KT 3000 DZ FEW008 SCT012 FEW025CB BKN080 27/26 Q1008 TEMPO 2500 RA
Conditions at: VOTV (THIRUVANANTHAPUR, IN) observed 0030 UTC 16 June 2019
Temperature: 27.0°C (81°F)
Dewpoint: 26.0°C (79°F) [RH = 94%]
Pressure (altimeter): 29.76 inches Hg (1008.0 mb)
Winds: from the N (350 degrees) at 3 MPH (3 knots; 1.5 m/s)
Visibility: 1.86 miles (2.99 km)
Ceiling: 8000 feet AGL
Clouds: few clouds at 800 feet AGL
scattered clouds at 1200 feet AGL
few clouds at 2500 feet AGL
broken clouds at 8000 feet AGL
Weather: DZ  (moderate drizzle)

METAR text: VOTV 160000Z 35003KT 3000 -RA FEW008 SCT012 FEW025CB OVC080 27/26 Q1008 TEMPO 2500 RA
Conditions at: VOTV (THIRUVANANTHAPUR, IN) observed 0000 UTC 16 June 2019
Temperature: 27.0°C (81°F)
Dewpoint: 26.0°C (79°F) [RH = 94%]
Pressure (altimeter): 29.76 inches Hg (1008.0 mb)
Winds: from the N (350 degrees) at 3 MPH (3 knots; 1.5 m/s)
Visibility: 1.86 miles (2.99 km)
Ceiling: 8000 feet AGL
Clouds: few clouds at 800 feet AGL
scattered clouds at 1200 feet AGL
few clouds at 2500 feet AGL
overcast cloud deck at 8000 feet AGL
Weather: -RA  (light rain)

METAR text: VOTV 152330Z 32005KT 3000 -RA FEW008 SCT012 FEW025CB OVC080 27/26 Q1008 TEMPO 2500 RA
Conditions at: VOTV (THIRUVANANTHAPUR, IN) observed 2330 UTC 15 June 2019
Temperature: 27.0°C (81°F)
Dewpoint: 26.0°C (79°F) [RH = 94%]
Pressure (altimeter): 29.76 inches Hg (1008.0 mb)
Winds: from the NW (320 degrees) at 6 MPH (5 knots; 2.6 m/s)
Visibility: 1.86 miles (2.99 km)
Ceiling: 8000 feet AGL
Clouds: few clouds at 800 feet AGL
scattered clouds at 1200 feet AGL
few clouds at 2500 feet AGL
overcast cloud deck at 8000 feet AGL
Weather: -RA  (light rain)

METAR text: VOTV 152300Z 32005KT 3000 -RA FEW008 SCT012 FEW025CB OVC080 27/26 Q1008 TEMPO 2500 RA
Conditions at: VOTV (THIRUVANANTHAPUR, IN) observed 2300 UTC 15 June 2019
Temperature: 27.0°C (81°F)
Dewpoint: 26.0°C (79°F) [RH = 94%]
Pressure (altimeter): 29.76 inches Hg (1008.0 mb)
Winds: from the NW (320 degrees) at 6 MPH (5 knots; 2.6 m/s)
Visibility: 1.86 miles (2.99 km)
Ceiling: 8000 feet AGL
Clouds: few clouds at 800 feet AGL
scattered clouds at 1200 feet AGL
few clouds at 2500 feet AGL
overcast cloud deck at 8000 feet AGL
Weather: -RA  (light rain)

Forecast for: VOTV (THIRUVANANTHAPUR, IN)
Text: TAF VOTV 170800Z 1709/1718 32010KT 6000 SCT015 FEW025CB
Forecast period: 0900 to 1600 UTC 17 June 2019
Forecast type: FROM: standard forecast or significant change
Winds: from the NW (320 degrees) at 12 MPH (10 knots; 5.1 m/s)
Visibility: 4 miles (6 km)
Ceiling: at least 12,000 feet AGL
Clouds: scattered clouds at 1500 feet AGL
few clouds at 2500 feet AGL
Weather: no significant weather forecast for this period
Text: TEMPO 1709/1713 32010G20KT 3000 TSRA RA SCT010 FEW025CB BKN080
Forecast period: 0900 to 1300 UTC 17 June 2019
Forecast type: TEMPORARY: The following changes expected for less than half the time period
Winds: from the NW (320 degrees) at 12 MPH (10 knots; 5.1 m/s)
gusting to 23 MPH (20 knots; 10.3 m/s)
Visibility: 1.86 miles (2.99 km)
Ceiling: 8000 feet AGL
Clouds: scattered clouds at 1000 feet AGL
few clouds at 2500 feet AGL
broken clouds at 8000 feet AGL
Weather: TSRA RA  (rain associated with thunderstorm(s), moderate rain)
Text: BECMG 1716/1718 34005KT 4000 HZ DZ SCT010 BKN080
Forecast period: 1600 to 1800 UTC 17 June 2019
Forecast type: BECOMING: Conditions expected to become as follows by 1800 UTC 17 June 2019
Winds: from the NNW (340 degrees) at 6 MPH (5 knots; 2.6 m/s)
Visibility: 2.49 miles (4.01 km)
Ceiling: 8000 feet AGL
Clouds: scattered clouds at 1000 feet AGL
broken clouds at 8000 feet AGL
Weather: HZ DZ  (haze, moderate drizzle)